sensor_id;sensor_type;location;lat;lon;timestamp;P1;durP1;ratioP1;P2;durP2;ratioP2
13741;SDS011;8461;52.356;10.704;2023-02-28T00:01:34;9.00;;;5.47;;
13741;SDS011;8461;52.356;10.704;2023-02-28T00:04:00;8.70;;;4.17;;
13741;SDS011;8461;52.356;10.704;2023-02-28T00:06:26;11.17;;;4.83;;
13741;SDS011;8461;52.356;10.704;2023-02-28T00:08:52;5.57;;;3.10;;
13741;SDS011;8461;52.356;10.704;2023-02-28T00:11:18;6.20;;;3.13;;
13741;SDS011;8461;52.356;10.704;2023-02-28T00:13:44;3.57;;;2.83;;
13741;SDS011;8461;52.356;10.704;2023-02-28T00:16:18;5.80;;;3.30;;
13741;SDS011;8461;52.356;10.704;2023-02-28T00:18:44;8.27;;;4.27;;
13741;SDS011;8461;52.356;10.704;2023-02-28T00:21:12;7.00;;;4.00;;
13741;SDS011;8461;52.356;10.704;2023-02-28T00:23:38;9.03;;;4.53;;
13741;SDS011;8461;52.356;10.704;2023-02-28T00:26:04;15.13;;;6.77;;
13741;SDS011;8461;52.356;10.704;2023-02-28T00:28:30;19.17;;;8.60;;
13741;SDS011;8461;52.356;10.704;2023-02-28T00:30:56;14.67;;;6.60;;
13741;SDS011;8461;52.356;10.704;2023-02-28T00:33:22;13.13;;;5.93;;
13741;SDS011;8461;52.356;10.704;2023-02-28T00:35:48;9.83;;;5.40;;
13741;SDS011;8461;52.356;10.704;2023-02-28T00:38:14;11.20;;;6.67;;
13741;SDS011;8461;52.356;10.704;2023-02-28T00:40:40;10.70;;;5.10;;
13741;SDS011;8461;52.356;10.704;2023-02-28T00:43:06;7.43;;;4.63;;
13741;SDS011;8461;52.356;10.704;2023-02-28T00:45:32;8.77;;;4.23;;
13741;SDS011;8461;52.356;10.704;2023-02-28T00:47:58;9.37;;;5.13;;
13741;SDS011;8461;52.356;10.704;2023-02-28T00:50:24;7.97;;;4.53;;
13741;SDS011;8461;52.356;10.704;2023-02-28T00:52:50;9.57;;;4.27;;
13741;SDS011;8461;52.356;10.704;2023-02-28T00:55:16;6.50;;;3.97;;
13741;SDS011;8461;52.356;10.704;2023-02-28T00:57:43;9.50;;;4.23;;
13741;SDS011;8461;52.356;10.704;2023-02-28T01:00:09;7.90;;;4.30;;
13741;SDS011;8461;52.356;10.704;2023-02-28T01:02:36;8.30;;;4.37;;
13741;SDS011;8461;52.356;10.704;2023-02-28T01:05:02;5.17;;;3.30;;
13741;SDS011;8461;52.356;10.704;2023-02-28T01:07:28;3.70;;;2.67;;
13741;SDS011;8461;52.356;10.704;2023-02-28T01:09:54;5.63;;;3.37;;
13741;SDS011;8461;52.356;10.704;2023-02-28T01:12:20;6.53;;;3.60;;
13741;SDS011;8461;52.356;10.704;2023-02-28T01:14:46;5.67;;;3.47;;
13741;SDS011;8461;52.356;10.704;2023-02-28T01:17:12;3.83;;;2.80;;
13741;SDS011;8461;52.356;10.704;2023-02-28T01:19:38;3.53;;;2.63;;
13741;SDS011;8461;52.356;10.704;2023-02-28T01:22:04;8.03;;;3.43;;
13741;SDS011;8461;52.356;10.704;2023-02-28T01:24:30;5.30;;;3.10;;
13741;SDS011;8461;52.356;10.704;2023-02-28T01:26:56;5.03;;;3.17;;
13741;SDS011;8461;52.356;10.704;2023-02-28T01:29:22;5.57;;;3.30;;
13741;SDS011;8461;52.356;10.704;2023-02-28T01:31:48;4.83;;;2.87;;
13741;SDS011;8461;52.356;10.704;2023-02-28T01:34:14;6.63;;;3.20;;
13741;SDS011;8461;52.356;10.704;2023-02-28T01:36:40;2.30;;;1.80;;
13741;SDS011;8461;52.356;10.704;2023-02-28T01:39:06;5.60;;;2.80;;
13741;SDS011;8461;52.356;10.704;2023-02-28T01:41:33;3.20;;;2.50;;
13741;SDS011;8461;52.356;10.704;2023-02-28T01:44:04;6.83;;;3.03;;
13741;SDS011;8461;52.356;10.704;2023-02-28T01:46:31;6.13;;;2.83;;
13741;SDS011;8461;52.356;10.704;2023-02-28T01:48:59;5.80;;;3.30;;
13741;SDS011;8461;52.356;10.704;2023-02-28T01:51:27;5.73;;;3.37;;
13741;SDS011;8461;52.356;10.704;2023-02-28T01:53:56;3.63;;;2.63;;
13741;SDS011;8461;52.356;10.704;2023-02-28T01:56:24;3.80;;;2.80;;
13741;SDS011;8461;52.356;10.704;2023-02-28T01:58:52;5.90;;;2.87;;
13741;SDS011;8461;52.356;10.704;2023-02-28T02:01:19;3.87;;;2.47;;
13741;SDS011;8461;52.356;10.704;2023-02-28T02:03:49;4.00;;;2.80;;
13741;SDS011;8461;52.356;10.704;2023-02-28T02:06:20;4.87;;;2.87;;
13741;SDS011;8461;52.356;10.704;2023-02-28T02:08:46;3.70;;;2.80;;
13741;SDS011;8461;52.356;10.704;2023-02-28T02:11:12;5.30;;;3.03;;
13741;SDS011;8461;52.356;10.704;2023-02-28T02:13:46;3.67;;;2.90;;
13741;SDS011;8461;52.356;10.704;2023-02-28T02:24:23;4.10;;;2.67;;
13741;SDS011;8461;52.356;10.704;2023-02-28T02:29:43;4.03;;;2.47;;
13741;SDS011;8461;52.356;10.704;2023-02-28T02:34:52;3.53;;;2.77;;
13741;SDS011;8461;52.356;10.704;2023-02-28T02:37:25;5.63;;;2.60;;
13741;SDS011;8461;52.356;10.704;2023-02-28T02:40:04;4.33;;;2.70;;
13741;SDS011;8461;52.356;10.704;2023-02-28T02:42:44;3.83;;;2.20;;
13741;SDS011;8461;52.356;10.704;2023-02-28T02:45:12;3.67;;;2.67;;
13741;SDS011;8461;52.356;10.704;2023-02-28T02:47:40;3.20;;;1.70;;
13741;SDS011;8461;52.356;10.704;2023-02-28T02:50:08;2.63;;;2.03;;
13741;SDS011;8461;52.356;10.704;2023-02-28T02:52:38;3.33;;;2.00;;
13741;SDS011;8461;52.356;10.704;2023-02-28T02:55:06;5.40;;;2.73;;
13741;SDS011;8461;52.356;10.704;2023-02-28T02:57:38;4.67;;;2.23;;
13741;SDS011;8461;52.356;10.704;2023-02-28T03:00:04;2.93;;;2.37;;
13741;SDS011;8461;52.356;10.704;2023-02-28T03:02:33;2.57;;;2.30;;
13741;SDS011;8461;52.356;10.704;2023-02-28T03:05:46;2.93;;;2.37;;
13741;SDS011;8461;52.356;10.704;2023-02-28T03:07:47;2.53;;;2.27;;
13741;SDS011;8461;52.356;10.704;2023-02-28T03:13:03;4.27;;;2.30;;
13741;SDS011;8461;52.356;10.704;2023-02-28T03:15:48;5.50;;;2.10;;
13741;SDS011;8461;52.356;10.704;2023-02-28T03:21:19;3.47;;;2.40;;
13741;SDS011;8461;52.356;10.704;2023-02-28T03:23:58;3.27;;;2.27;;
13741;SDS011;8461;52.356;10.704;2023-02-28T03:26:27;4.43;;;2.30;;
13741;SDS011;8461;52.356;10.704;2023-02-28T03:28:59;2.77;;;2.13;;
13741;SDS011;8461;52.356;10.704;2023-02-28T03:31:38;3.67;;;2.50;;
13741;SDS011;8461;52.356;10.704;2023-02-28T03:36:47;3.27;;;2.33;;
13741;SDS011;8461;52.356;10.704;2023-02-28T03:39:16;2.43;;;2.23;;
13741;SDS011;8461;52.356;10.704;2023-02-28T03:44:14;2.97;;;2.27;;
13741;SDS011;8461;52.356;10.704;2023-02-28T03:46:47;2.50;;;2.00;;
13741;SDS011;8461;52.356;10.704;2023-02-28T03:49:18;4.37;;;1.90;;
13741;SDS011;8461;52.356;10.704;2023-02-28T03:51:47;2.33;;;1.97;;
13741;SDS011;8461;52.356;10.704;2023-02-28T03:54:19;3.07;;;2.53;;
13741;SDS011;8461;52.356;10.704;2023-02-28T03:56:52;3.17;;;2.27;;
13741;SDS011;8461;52.356;10.704;2023-02-28T03:59:27;3.73;;;1.93;;
13741;SDS011;8461;52.356;10.704;2023-02-28T04:01:53;3.40;;;2.70;;
13741;SDS011;8461;52.356;10.704;2023-02-28T04:04:20;3.63;;;2.60;;
13741;SDS011;8461;52.356;10.704;2023-02-28T04:06:49;3.63;;;2.83;;
13741;SDS011;8461;52.356;10.704;2023-02-28T04:09:15;5.23;;;2.70;;
13741;SDS011;8461;52.356;10.704;2023-02-28T04:14:10;2.53;;;2.10;;
13741;SDS011;8461;52.356;10.704;2023-02-28T04:16:38;2.93;;;2.40;;
13741;SDS011;8461;52.356;10.704;2023-02-28T04:19:05;3.97;;;2.50;;
13741;SDS011;8461;52.356;10.704;2023-02-28T04:21:32;3.47;;;2.47;;
13741;SDS011;8461;52.356;10.704;2023-02-28T04:23:58;4.60;;;3.43;;
13741;SDS011;8461;52.356;10.704;2023-02-28T04:26:27;7.13;;;3.27;;
13741;SDS011;8461;52.356;10.704;2023-02-28T04:28:54;3.90;;;3.30;;
13741;SDS011;8461;52.356;10.704;2023-02-28T04:31:20;5.27;;;3.40;;
13741;SDS011;8461;52.356;10.704;2023-02-28T04:33:46;2.77;;;2.40;;
13741;SDS011;8461;52.356;10.704;2023-02-28T04:36:12;6.67;;;2.93;;
13741;SDS011;8461;52.356;10.704;2023-02-28T04:38:39;4.13;;;2.73;;
13741;SDS011;8461;52.356;10.704;2023-02-28T04:41:05;4.60;;;2.77;;
13741;SDS011;8461;52.356;10.704;2023-02-28T04:43:31;4.80;;;2.70;;
13741;SDS011;8461;52.356;10.704;2023-02-28T04:45:59;3.30;;;2.40;;
13741;SDS011;8461;52.356;10.704;2023-02-28T04:48:29;5.10;;;2.57;;
13741;SDS011;8461;52.356;10.704;2023-02-28T04:51:00;2.90;;;2.47;;
13741;SDS011;8461;52.356;10.704;2023-02-28T04:53:27;3.97;;;2.90;;
13741;SDS011;8461;52.356;10.704;2023-02-28T04:55:53;5.07;;;2.60;;
13741;SDS011;8461;52.356;10.704;2023-02-28T04:58:19;5.03;;;2.90;;
13741;SDS011;8461;52.356;10.704;2023-02-28T05:00:48;4.47;;;2.60;;
13741;SDS011;8461;52.356;10.704;2023-02-28T05:03:14;3.93;;;2.83;;
13741;SDS011;8461;52.356;10.704;2023-02-28T05:05:39;3.97;;;2.67;;
13741;SDS011;8461;52.356;10.704;2023-02-28T05:08:05;4.03;;;2.60;;
13741;SDS011;8461;52.356;10.704;2023-02-28T05:10:31;4.03;;;2.63;;
13741;SDS011;8461;52.356;10.704;2023-02-28T05:12:57;4.50;;;2.10;;
13741;SDS011;8461;52.356;10.704;2023-02-28T05:15:24;3.10;;;2.50;;
13741;SDS011;8461;52.356;10.704;2023-02-28T05:17:50;2.27;;;1.80;;
13741;SDS011;8461;52.356;10.704;2023-02-28T05:20:16;3.67;;;2.60;;
13741;SDS011;8461;52.356;10.704;2023-02-28T05:22:42;2.60;;;2.00;;
13741;SDS011;8461;52.356;10.704;2023-02-28T05:25:10;4.77;;;2.83;;
13741;SDS011;8461;52.356;10.704;2023-02-28T05:27:37;2.47;;;1.93;;
13741;SDS011;8461;52.356;10.704;2023-02-28T05:30:04;6.40;;;2.20;;
13741;SDS011;8461;52.356;10.704;2023-02-28T05:32:30;2.83;;;2.37;;
13741;SDS011;8461;52.356;10.704;2023-02-28T05:34:56;5.60;;;2.17;;
13741;SDS011;8461;52.356;10.704;2023-02-28T05:37:22;5.40;;;2.47;;
13741;SDS011;8461;52.356;10.704;2023-02-28T05:39:48;3.37;;;2.70;;
13741;SDS011;8461;52.356;10.704;2023-02-28T05:42:14;4.57;;;2.97;;
13741;SDS011;8461;52.356;10.704;2023-02-28T05:44:40;5.27;;;2.87;;
13741;SDS011;8461;52.356;10.704;2023-02-28T05:47:07;4.23;;;2.70;;
13741;SDS011;8461;52.356;10.704;2023-02-28T05:49:32;2.90;;;2.60;;
13741;SDS011;8461;52.356;10.704;2023-02-28T05:51:59;3.90;;;2.70;;
13741;SDS011;8461;52.356;10.704;2023-02-28T05:54:25;3.97;;;3.17;;
13741;SDS011;8461;52.356;10.704;2023-02-28T05:56:51;7.90;;;3.67;;
13741;SDS011;8461;52.356;10.704;2023-02-28T05:59:17;7.33;;;2.70;;
13741;SDS011;8461;52.356;10.704;2023-02-28T06:01:44;5.17;;;3.00;;
13741;SDS011;8461;52.356;10.704;2023-02-28T06:04:13;4.30;;;3.13;;
13741;SDS011;8461;52.356;10.704;2023-02-28T06:06:42;5.17;;;3.67;;
13741;SDS011;8461;52.356;10.704;2023-02-28T06:09:08;5.83;;;3.33;;
13741;SDS011;8461;52.356;10.704;2023-02-28T06:11:34;3.83;;;3.10;;
13741;SDS011;8461;52.356;10.704;2023-02-28T06:14:00;6.73;;;3.13;;
13741;SDS011;8461;52.356;10.704;2023-02-28T06:16:27;7.23;;;4.30;;
13741;SDS011;8461;52.356;10.704;2023-02-28T06:18:53;7.87;;;4.90;;
13741;SDS011;8461;52.356;10.704;2023-02-28T06:21:22;5.40;;;4.67;;
13741;SDS011;8461;52.356;10.704;2023-02-28T06:23:49;7.00;;;5.10;;
13741;SDS011;8461;52.356;10.704;2023-02-28T06:26:15;6.07;;;3.63;;
13741;SDS011;8461;52.356;10.704;2023-02-28T06:28:40;4.43;;;2.90;;
13741;SDS011;8461;52.356;10.704;2023-02-28T06:31:07;3.37;;;3.07;;
13741;SDS011;8461;52.356;10.704;2023-02-28T06:33:33;3.70;;;3.00;;
13741;SDS011;8461;52.356;10.704;2023-02-28T06:35:59;10.03;;;5.33;;
13741;SDS011;8461;52.356;10.704;2023-02-28T06:38:26;6.63;;;4.50;;
13741;SDS011;8461;52.356;10.704;2023-02-28T06:40:55;6.07;;;4.77;;
13741;SDS011;8461;52.356;10.704;2023-02-28T06:43:22;5.13;;;4.50;;
13741;SDS011;8461;52.356;10.704;2023-02-28T06:45:48;9.97;;;6.37;;
13741;SDS011;8461;52.356;10.704;2023-02-28T06:48:14;15.63;;;8.27;;
13741;SDS011;8461;52.356;10.704;2023-02-28T06:50:40;12.50;;;8.87;;
13741;SDS011;8461;52.356;10.704;2023-02-28T06:53:06;15.33;;;8.63;;
13741;SDS011;8461;52.356;10.704;2023-02-28T06:55:32;10.90;;;6.73;;
13741;SDS011;8461;52.356;10.704;2023-02-28T06:57:58;13.90;;;6.60;;
13741;SDS011;8461;52.356;10.704;2023-02-28T07:00:24;10.37;;;7.10;;
13741;SDS011;8461;52.356;10.704;2023-02-28T07:02:50;11.27;;;7.67;;
13741;SDS011;8461;52.356;10.704;2023-02-28T07:05:16;12.63;;;7.07;;
13741;SDS011;8461;52.356;10.704;2023-02-28T07:07:42;15.73;;;7.23;;
13741;SDS011;8461;52.356;10.704;2023-02-28T07:10:11;8.87;;;4.80;;
13741;SDS011;8461;52.356;10.704;2023-02-28T07:12:38;12.13;;;5.97;;
13741;SDS011;8461;52.356;10.704;2023-02-28T07:15:04;11.40;;;6.80;;
13741;SDS011;8461;52.356;10.704;2023-02-28T07:17:30;9.30;;;5.77;;
13741;SDS011;8461;52.356;10.704;2023-02-28T07:19:56;8.30;;;5.17;;
13741;SDS011;8461;52.356;10.704;2023-02-28T07:22:22;9.17;;;5.50;;
13741;SDS011;8461;52.356;10.704;2023-02-28T07:24:49;9.97;;;5.30;;
13741;SDS011;8461;52.356;10.704;2023-02-28T07:27:16;5.67;;;4.00;;
13741;SDS011;8461;52.356;10.704;2023-02-28T07:29:49;7.03;;;4.80;;
13741;SDS011;8461;52.356;10.704;2023-02-28T07:32:15;6.40;;;4.47;;
13741;SDS011;8461;52.356;10.704;2023-02-28T07:34:41;8.30;;;4.80;;
13741;SDS011;8461;52.356;10.704;2023-02-28T07:37:07;9.63;;;4.80;;
13741;SDS011;8461;52.356;10.704;2023-02-28T07:39:33;8.87;;;4.77;;
13741;SDS011;8461;52.356;10.704;2023-02-28T07:41:59;7.67;;;4.63;;
13741;SDS011;8461;52.356;10.704;2023-02-28T07:44:26;6.97;;;4.60;;
13741;SDS011;8461;52.356;10.704;2023-02-28T07:46:53;10.07;;;5.07;;
13741;SDS011;8461;52.356;10.704;2023-02-28T07:49:19;7.07;;;5.03;;
13741;SDS011;8461;52.356;10.704;2023-02-28T07:51:45;6.53;;;4.33;;
13741;SDS011;8461;52.356;10.704;2023-02-28T07:54:11;9.20;;;4.80;;
13741;SDS011;8461;52.356;10.704;2023-02-28T07:56:36;6.87;;;4.63;;
13741;SDS011;8461;52.356;10.704;2023-02-28T07:59:02;10.37;;;4.50;;
13741;SDS011;8461;52.356;10.704;2023-02-28T08:01:28;10.20;;;5.43;;
13741;SDS011;8461;52.356;10.704;2023-02-28T08:03:54;6.00;;;3.93;;
13741;SDS011;8461;52.356;10.704;2023-02-28T08:06:23;5.80;;;2.93;;
13741;SDS011;8461;52.356;10.704;2023-02-28T08:08:49;5.27;;;2.90;;
13741;SDS011;8461;52.356;10.704;2023-02-28T08:11:16;5.07;;;2.60;;
13741;SDS011;8461;52.356;10.704;2023-02-28T08:13:42;3.73;;;2.70;;
13741;SDS011;8461;52.356;10.704;2023-02-28T08:16:09;4.17;;;2.90;;
13741;SDS011;8461;52.356;10.704;2023-02-28T08:18:35;3.20;;;2.40;;
13741;SDS011;8461;52.356;10.704;2023-02-28T08:21:08;3.03;;;2.33;;
13741;SDS011;8461;52.356;10.704;2023-02-28T08:23:34;4.30;;;2.47;;
13741;SDS011;8461;52.356;10.704;2023-02-28T08:26:00;5.50;;;2.60;;
13741;SDS011;8461;52.356;10.704;2023-02-28T08:28:26;7.53;;;2.83;;
13741;SDS011;8461;52.356;10.704;2023-02-28T08:30:52;4.23;;;2.73;;
13741;SDS011;8461;52.356;10.704;2023-02-28T08:33:19;4.60;;;2.70;;
13741;SDS011;8461;52.356;10.704;2023-02-28T08:35:45;3.27;;;2.13;;
13741;SDS011;8461;52.356;10.704;2023-02-28T08:38:12;6.40;;;3.20;;
13741;SDS011;8461;52.356;10.704;2023-02-28T08:40:38;5.87;;;3.37;;
13741;SDS011;8461;52.356;10.704;2023-02-28T08:43:04;6.10;;;2.23;;
13741;SDS011;8461;52.356;10.704;2023-02-28T08:45:30;5.70;;;2.83;;
13741;SDS011;8461;52.356;10.704;2023-02-28T08:47:56;6.27;;;2.17;;
13741;SDS011;8461;52.356;10.704;2023-02-28T08:50:22;6.37;;;3.17;;
13741;SDS011;8461;52.356;10.704;2023-02-28T08:52:48;4.27;;;3.17;;
13741;SDS011;8461;52.356;10.704;2023-02-28T08:55:14;3.20;;;2.77;;
13741;SDS011;8461;52.356;10.704;2023-02-28T08:57:40;5.57;;;3.30;;
13741;SDS011;8461;52.356;10.704;2023-02-28T09:00:06;4.83;;;3.60;;
13741;SDS011;8461;52.356;10.704;2023-02-28T09:02:32;6.40;;;3.67;;
13741;SDS011;8461;52.356;10.704;2023-02-28T09:04:58;7.40;;;3.80;;
13741;SDS011;8461;52.356;10.704;2023-02-28T09:07:25;11.73;;;4.17;;
13741;SDS011;8461;52.356;10.704;2023-02-28T09:09:51;5.13;;;3.53;;
13741;SDS011;8461;52.356;10.704;2023-02-28T09:12:21;8.07;;;3.43;;
13741;SDS011;8461;52.356;10.704;2023-02-28T09:14:47;6.83;;;3.13;;
13741;SDS011;8461;52.356;10.704;2023-02-28T09:17:13;5.57;;;3.47;;
13741;SDS011;8461;52.356;10.704;2023-02-28T09:19:39;7.13;;;4.23;;
13741;SDS011;8461;52.356;10.704;2023-02-28T09:22:05;5.17;;;3.60;;
13741;SDS011;8461;52.356;10.704;2023-02-28T09:24:31;5.73;;;2.67;;
13741;SDS011;8461;52.356;10.704;2023-02-28T09:26:57;7.77;;;3.47;;
13741;SDS011;8461;52.356;10.704;2023-02-28T09:29:23;5.63;;;2.90;;
13741;SDS011;8461;52.356;10.704;2023-02-28T09:31:49;6.50;;;3.00;;
13741;SDS011;8461;52.356;10.704;2023-02-28T09:34:15;4.00;;;2.80;;
13741;SDS011;8461;52.356;10.704;2023-02-28T09:36:42;5.47;;;3.30;;
13741;SDS011;8461;52.356;10.704;2023-02-28T09:39:08;7.40;;;2.90;;
13741;SDS011;8461;52.356;10.704;2023-02-28T09:41:38;5.07;;;2.43;;
13741;SDS011;8461;52.356;10.704;2023-02-28T09:44:12;6.80;;;2.47;;
13741;SDS011;8461;52.356;10.704;2023-02-28T09:46:44;6.43;;;3.00;;
13741;SDS011;8461;52.356;10.704;2023-02-28T09:49:13;4.60;;;2.90;;
13741;SDS011;8461;52.356;10.704;2023-02-28T09:54:11;4.17;;;2.80;;
13741;SDS011;8461;52.356;10.704;2023-02-28T09:56:39;6.60;;;3.10;;
13741;SDS011;8461;52.356;10.704;2023-02-28T10:07:10;3.43;;;2.60;;
13741;SDS011;8461;52.356;10.704;2023-02-28T10:09:42;5.70;;;3.63;;
13741;SDS011;8461;52.356;10.704;2023-02-28T10:12:08;4.70;;;3.03;;
13741;SDS011;8461;52.356;10.704;2023-02-28T10:14:35;4.50;;;2.63;;
13741;SDS011;8461;52.356;10.704;2023-02-28T10:19:35;8.37;;;3.33;;
13741;SDS011;8461;52.356;10.704;2023-02-28T10:22:14;5.13;;;2.53;;
13741;SDS011;8461;52.356;10.704;2023-02-28T10:24:42;3.07;;;1.97;;
13741;SDS011;8461;52.356;10.704;2023-02-28T10:27:16;3.60;;;1.73;;
13741;SDS011;8461;52.356;10.704;2023-02-28T10:29:43;3.97;;;1.87;;
13741;SDS011;8461;52.356;10.704;2023-02-28T10:32:10;3.77;;;2.23;;
13741;SDS011;8461;52.356;10.704;2023-02-28T10:34:36;5.90;;;2.53;;
13741;SDS011;8461;52.356;10.704;2023-02-28T10:37:03;4.00;;;1.87;;
13741;SDS011;8461;52.356;10.704;2023-02-28T10:39:42;4.53;;;2.03;;
13741;SDS011;8461;52.356;10.704;2023-02-28T10:42:22;2.70;;;1.70;;
13741;SDS011;8461;52.356;10.704;2023-02-28T10:44:58;2.50;;;2.10;;
13741;SDS011;8461;52.356;10.704;2023-02-28T10:47:30;3.17;;;1.67;;
13741;SDS011;8461;52.356;10.704;2023-02-28T10:49:55;5.53;;;3.33;;
13741;SDS011;8461;52.356;10.704;2023-02-28T10:52:39;6.43;;;2.93;;
13741;SDS011;8461;52.356;10.704;2023-02-28T10:55:22;5.37;;;2.33;;
13741;SDS011;8461;52.356;10.704;2023-02-28T10:57:48;3.77;;;2.60;;
13741;SDS011;8461;52.356;10.704;2023-02-28T11:00:19;13.83;;;4.80;;
13741;SDS011;8461;52.356;10.704;2023-02-28T11:02:46;2.30;;;1.53;;
13741;SDS011;8461;52.356;10.704;2023-02-28T11:07:55;3.60;;;2.33;;
13741;SDS011;8461;52.356;10.704;2023-02-28T11:10:22;5.33;;;1.30;;
13741;SDS011;8461;52.356;10.704;2023-02-28T11:12:53;2.00;;;1.40;;
13741;SDS011;8461;52.356;10.704;2023-02-28T11:15:24;1.57;;;1.40;;
13741;SDS011;8461;52.356;10.704;2023-02-28T11:18:00;3.50;;;1.93;;
13741;SDS011;8461;52.356;10.704;2023-02-28T11:20:28;2.20;;;1.43;;
13741;SDS011;8461;52.356;10.704;2023-02-28T11:22:54;5.17;;;1.57;;
13741;SDS011;8461;52.356;10.704;2023-02-28T11:25:24;3.30;;;1.60;;
13741;SDS011;8461;52.356;10.704;2023-02-28T11:27:52;1.33;;;1.23;;
13741;SDS011;8461;52.356;10.704;2023-02-28T11:32:53;3.43;;;2.20;;
13741;SDS011;8461;52.356;10.704;2023-02-28T11:35:36;1.67;;;1.50;;
13741;SDS011;8461;52.356;10.704;2023-02-28T11:38:04;3.50;;;2.03;;
13741;SDS011;8461;52.356;10.704;2023-02-28T11:40:37;2.97;;;1.97;;
13741;SDS011;8461;52.356;10.704;2023-02-28T11:45:36;3.13;;;1.80;;
13741;SDS011;8461;52.356;10.704;2023-02-28T11:53:24;3.43;;;1.40;;
13741;SDS011;8461;52.356;10.704;2023-02-28T11:56:02;1.93;;;1.40;;
13741;SDS011;8461;52.356;10.704;2023-02-28T11:58:42;8.60;;;2.67;;
13741;SDS011;8461;52.356;10.704;2023-02-28T12:01:25;2.60;;;1.77;;
13741;SDS011;8461;52.356;10.704;2023-02-28T12:04:04;2.40;;;1.67;;
13741;SDS011;8461;52.356;10.704;2023-02-28T12:09:20;4.20;;;2.33;;
13741;SDS011;8461;52.356;10.704;2023-02-28T12:12:04;3.63;;;2.10;;
13741;SDS011;8461;52.356;10.704;2023-02-28T12:19:43;3.53;;;2.17;;
13741;SDS011;8461;52.356;10.704;2023-02-28T12:22:19;1.83;;;1.37;;
13741;SDS011;8461;52.356;10.704;2023-02-28T12:27:19;2.20;;;1.83;;
13741;SDS011;8461;52.356;10.704;2023-02-28T12:29:54;3.43;;;2.27;;
13741;SDS011;8461;52.356;10.704;2023-02-28T12:32:24;1.70;;;1.33;;
13741;SDS011;8461;52.356;10.704;2023-02-28T12:34:58;3.63;;;1.43;;
13741;SDS011;8461;52.356;10.704;2023-02-28T12:42:50;2.97;;;2.10;;
13741;SDS011;8461;52.356;10.704;2023-02-28T12:45:25;2.77;;;1.77;;
13741;SDS011;8461;52.356;10.704;2023-02-28T12:48:00;1.33;;;1.17;;
13741;SDS011;8461;52.356;10.704;2023-02-28T12:50:27;3.47;;;1.60;;
13741;SDS011;8461;52.356;10.704;2023-02-28T12:53:00;3.17;;;1.80;;
13741;SDS011;8461;52.356;10.704;2023-02-28T13:00:38;2.57;;;1.97;;
13741;SDS011;8461;52.356;10.704;2023-02-28T13:10:59;1.50;;;1.40;;
13741;SDS011;8461;52.356;10.704;2023-02-28T13:13:26;3.13;;;2.10;;
13741;SDS011;8461;52.356;10.704;2023-02-28T13:18:35;5.27;;;1.80;;
13741;SDS011;8461;52.356;10.704;2023-02-28T13:21:02;5.37;;;2.17;;
13741;SDS011;8461;52.356;10.704;2023-02-28T13:24:04;2.10;;;1.60;;
13741;SDS011;8461;52.356;10.704;2023-02-28T13:29:27;4.93;;;1.90;;
13741;SDS011;8461;52.356;10.704;2023-02-28T13:42:55;5.33;;;1.70;;
13741;SDS011;8461;52.356;10.704;2023-02-28T13:50:15;5.13;;;1.70;;
13741;SDS011;8461;52.356;10.704;2023-02-28T13:53:14;4.47;;;2.13;;
13741;SDS011;8461;52.356;10.704;2023-02-28T13:58:00;4.17;;;2.40;;
13741;SDS011;8461;52.356;10.704;2023-02-28T14:08:37;4.37;;;1.90;;
13741;SDS011;8461;52.356;10.704;2023-02-28T14:11:23;2.47;;;1.60;;
13741;SDS011;8461;52.356;10.704;2023-02-28T14:13:49;3.30;;;2.03;;
13741;SDS011;8461;52.356;10.704;2023-02-28T14:16:16;1.80;;;1.40;;
13741;SDS011;8461;52.356;10.704;2023-02-28T14:18:48;1.90;;;1.70;;
13741;SDS011;8461;52.356;10.704;2023-02-28T14:21:29;4.17;;;1.90;;
13741;SDS011;8461;52.356;10.704;2023-02-28T14:23:59;2.53;;;1.67;;
13741;SDS011;8461;52.356;10.704;2023-02-28T14:26:33;5.93;;;3.30;;
13741;SDS011;8461;52.356;10.704;2023-02-28T14:29:18;2.57;;;1.70;;
13741;SDS011;8461;52.356;10.704;2023-02-28T14:31:54;1.70;;;0.97;;
13741;SDS011;8461;52.356;10.704;2023-02-28T14:36:58;3.73;;;1.70;;
13741;SDS011;8461;52.356;10.704;2023-02-28T14:39:27;1.90;;;1.37;;
13741;SDS011;8461;52.356;10.704;2023-02-28T14:41:55;2.80;;;1.53;;
13741;SDS011;8461;52.356;10.704;2023-02-28T14:44:25;3.13;;;1.70;;
13741;SDS011;8461;52.356;10.704;2023-02-28T14:46:55;3.43;;;2.13;;
13741;SDS011;8461;52.356;10.704;2023-02-28T14:49:28;4.93;;;2.60;;
13741;SDS011;8461;52.356;10.704;2023-02-28T14:52:17;8.17;;;3.03;;
13741;SDS011;8461;52.356;10.704;2023-02-28T14:54:41;5.80;;;3.03;;
13741;SDS011;8461;52.356;10.704;2023-02-28T14:57:20;3.40;;;1.97;;
13741;SDS011;8461;52.356;10.704;2023-02-28T14:59:46;2.00;;;1.27;;
13741;SDS011;8461;52.356;10.704;2023-02-28T15:02:23;3.43;;;1.60;;
13741;SDS011;8461;52.356;10.704;2023-02-28T15:04:56;3.40;;;2.07;;
13741;SDS011;8461;52.356;10.704;2023-02-28T15:07:22;2.53;;;1.67;;
13741;SDS011;8461;52.356;10.704;2023-02-28T15:13:02;1.70;;;1.60;;
13741;SDS011;8461;52.356;10.704;2023-02-28T15:17:56;1.93;;;1.70;;
13741;SDS011;8461;52.356;10.704;2023-02-28T15:20:23;3.33;;;2.27;;
13741;SDS011;8461;52.356;10.704;2023-02-28T15:22:50;4.13;;;1.80;;
13741;SDS011;8461;52.356;10.704;2023-02-28T15:25:21;3.93;;;1.93;;
13741;SDS011;8461;52.356;10.704;2023-02-28T15:27:49;2.03;;;1.50;;
13741;SDS011;8461;52.356;10.704;2023-02-28T15:30:20;5.87;;;1.60;;
13741;SDS011;8461;52.356;10.704;2023-02-28T15:33:01;2.83;;;1.90;;
13741;SDS011;8461;52.356;10.704;2023-02-28T15:35:29;4.57;;;1.77;;
13741;SDS011;8461;52.356;10.704;2023-02-28T15:37:56;2.13;;;1.40;;
13741;SDS011;8461;52.356;10.704;2023-02-28T15:40:27;1.97;;;1.30;;
13741;SDS011;8461;52.356;10.704;2023-02-28T15:45:26;2.80;;;1.37;;
13741;SDS011;8461;52.356;10.704;2023-02-28T15:47:53;2.00;;;1.40;;
13741;SDS011;8461;52.356;10.704;2023-02-28T15:50:19;2.47;;;1.60;;
13741;SDS011;8461;52.356;10.704;2023-02-28T15:52:45;2.50;;;1.73;;
13741;SDS011;8461;52.356;10.704;2023-02-28T15:55:21;4.13;;;1.97;;
13741;SDS011;8461;52.356;10.704;2023-02-28T15:57:51;2.60;;;1.40;;
13741;SDS011;8461;52.356;10.704;2023-02-28T16:00:19;8.57;;;1.73;;
13741;SDS011;8461;52.356;10.704;2023-02-28T16:02:46;2.00;;;1.47;;
13741;SDS011;8461;52.356;10.704;2023-02-28T16:05:18;2.53;;;1.80;;
13741;SDS011;8461;52.356;10.704;2023-02-28T16:07:45;2.30;;;1.40;;
13741;SDS011;8461;52.356;10.704;2023-02-28T16:10:13;2.43;;;2.10;;
13741;SDS011;8461;52.356;10.704;2023-02-28T16:12:39;1.80;;;1.60;;
13741;SDS011;8461;52.356;10.704;2023-02-28T16:15:07;2.63;;;1.67;;
13741;SDS011;8461;52.356;10.704;2023-02-28T16:17:33;2.43;;;2.03;;
13741;SDS011;8461;52.356;10.704;2023-02-28T16:20:00;2.80;;;1.93;;
13741;SDS011;8461;52.356;10.704;2023-02-28T16:22:26;2.77;;;1.73;;
13741;SDS011;8461;52.356;10.704;2023-02-28T16:24:52;2.40;;;1.80;;
13741;SDS011;8461;52.356;10.704;2023-02-28T16:27:20;4.40;;;1.77;;
13741;SDS011;8461;52.356;10.704;2023-02-28T16:29:47;4.23;;;1.77;;
13741;SDS011;8461;52.356;10.704;2023-02-28T16:32:14;2.07;;;1.50;;
13741;SDS011;8461;52.356;10.704;2023-02-28T16:34:42;2.20;;;1.70;;
13741;SDS011;8461;52.356;10.704;2023-02-28T16:37:10;3.07;;;1.83;;
13741;SDS011;8461;52.356;10.704;2023-02-28T16:39:36;3.53;;;2.10;;
13741;SDS011;8461;52.356;10.704;2023-02-28T16:42:02;2.93;;;1.70;;
13741;SDS011;8461;52.356;10.704;2023-02-28T16:44:33;2.67;;;1.80;;
13741;SDS011;8461;52.356;10.704;2023-02-28T16:46:59;1.97;;;1.77;;
13741;SDS011;8461;52.356;10.704;2023-02-28T16:49:25;2.43;;;1.53;;
13741;SDS011;8461;52.356;10.704;2023-02-28T16:51:51;3.23;;;2.10;;
13741;SDS011;8461;52.356;10.704;2023-02-28T16:54:18;5.13;;;2.20;;
13741;SDS011;8461;52.356;10.704;2023-02-28T16:56:44;5.63;;;2.13;;
13741;SDS011;8461;52.356;10.704;2023-02-28T16:59:11;4.20;;;2.47;;
13741;SDS011;8461;52.356;10.704;2023-02-28T17:01:37;2.53;;;2.13;;